createdAt,value
2022-07-27T00:00:08.475Z,15.59
2022-07-27T00:05:13.346Z,15.55
2022-07-27T00:10:17.762Z,15.51
2022-07-27T00:15:19.318Z,15.45
2022-07-27T00:20:22.964Z,15.41
2022-07-27T00:25:28.915Z,15.35
2022-07-27T00:30:30.502Z,15.32
2022-07-27T00:35:31.993Z,15.31
2022-07-27T00:40:40.365Z,15.29
2022-07-27T00:45:41.768Z,15.26
2022-07-27T00:50:45.567Z,15.20
2022-07-27T00:55:46.861Z,15.15
2022-07-27T01:00:48.387Z,15.10
2022-07-27T01:05:50.685Z,15.07
2022-07-27T01:10:57.284Z,15.07
2022-07-27T01:16:17.071Z,15.07
2022-07-27T01:21:24.493Z,15.04
2022-07-27T01:26:36.081Z,15.03
2022-07-27T01:31:37.475Z,14.99
2022-07-27T01:36:38.888Z,14.92
2022-07-27T01:41:40.172Z,14.86
2022-07-27T01:46:41.521Z,14.80
2022-07-27T01:51:42.832Z,14.73
2022-07-27T01:56:44.341Z,14.67
2022-07-27T02:01:46.811Z,14.60
2022-07-27T02:06:48.160Z,14.54
2022-07-27T02:12:08.069Z,14.47
2022-07-27T02:17:09.338Z,14.39
2022-07-27T02:22:11.426Z,14.39
2022-07-27T02:27:12.927Z,14.41
2022-07-27T02:32:14.198Z,14.38
2022-07-27T02:37:15.574Z,14.31
2022-07-27T02:42:16.849Z,14.30
2022-07-27T02:47:18.160Z,14.29
2022-07-27T02:52:22.945Z,14.29
2022-07-27T02:57:24.203Z,14.35
2022-07-27T03:02:25.478Z,14.31
2022-07-27T03:07:26.690Z,14.23
2022-07-27T03:12:27.953Z,14.17
2022-07-27T03:17:29.194Z,14.21
2022-07-27T03:22:32.055Z,14.23
2022-07-27T03:27:35.278Z,14.25
2022-07-27T03:32:36.715Z,14.31
2022-07-27T03:37:37.968Z,14.40
2022-07-27T03:42:42.186Z,14.55
2022-07-27T03:47:43.495Z,14.93
2022-07-27T03:52:45.446Z,15.27
2022-07-27T03:57:57.158Z,15.61
2022-07-27T04:02:58.512Z,16.40
2022-07-27T04:08:00.410Z,17.04
2022-07-27T04:13:01.689Z,17.64
2022-07-27T04:18:04.902Z,18.06
2022-07-27T04:23:06.169Z,17.97
2022-07-27T04:28:07.449Z,18.48
2022-07-27T04:33:08.736Z,19.78
2022-07-27T04:38:09.933Z,21.29
2022-07-27T04:43:29.720Z,22.89
2022-07-27T04:48:35.167Z,24.14
2022-07-27T04:59:33.597Z,23.14
2022-07-27T05:04:35.172Z,22.57
2022-07-27T05:09:36.523Z,21.79
2022-07-27T05:14:37.822Z,21.36
2022-07-27T05:19:39.797Z,21.12
2022-07-27T05:24:42.316Z,20.79
2022-07-27T05:29:43.657Z,20.51
2022-07-27T05:34:45.802Z,20.08
2022-07-27T05:39:47.119Z,20.10
2022-07-27T05:44:54.652Z,20.23
2022-07-27T05:49:55.948Z,20.38
2022-07-27T05:54:57.157Z,20.27
2022-07-27T06:00:00.583Z,20.36
2022-07-27T06:05:02.368Z,20.62
2022-07-27T06:10:04.357Z,20.68
2022-07-27T06:15:07.366Z,20.57
2022-07-27T06:20:09.100Z,20.53
2022-07-27T06:25:11.613Z,20.64
2022-07-27T06:30:15.427Z,20.74
2022-07-27T06:35:16.811Z,20.86
2022-07-27T06:40:20.296Z,20.89
2022-07-27T06:45:21.639Z,21.01
2022-07-27T06:50:22.958Z,20.98
2022-07-27T06:55:27.447Z,21.00
2022-07-27T07:00:42.060Z,21.17
2022-07-27T07:05:57.566Z,21.15
2022-07-27T07:10:59.039Z,21.05
2022-07-27T07:16:21.032Z,21.00
2022-07-27T07:21:31.124Z,21.01
2022-07-27T07:26:32.538Z,21.18
2022-07-27T07:31:34.134Z,21.39
2022-07-27T07:36:44.389Z,21.68
2022-07-27T07:41:45.642Z,21.87
2022-07-27T07:46:47.369Z,21.92
2022-07-27T07:51:48.832Z,21.90
2022-07-27T07:56:50.027Z,22.13
2022-07-27T08:01:59.885Z,22.31
2022-07-27T08:07:01.406Z,22.34
2022-07-27T08:12:02.934Z,22.36
2022-07-27T08:17:04.229Z,22.27
2022-07-27T08:22:05.761Z,22.22
2022-07-27T08:27:07.065Z,22.29
2022-07-27T08:32:08.482Z,22.46
2022-07-27T08:37:15.069Z,22.58
2022-07-27T08:42:18.511Z,22.67
2022-07-27T08:47:24.144Z,22.80
2022-07-27T08:52:25.912Z,22.67
2022-07-27T08:57:27.299Z,22.73
2022-07-27T09:02:28.768Z,22.89
2022-07-27T09:07:41.000Z,23.27
2022-07-27T09:12:42.418Z,23.77
2022-07-27T09:17:48.662Z,24.02
2022-07-27T09:22:52.095Z,24.58
2022-07-27T09:27:55.773Z,25.07
2022-07-27T09:33:01.221Z,25.46
2022-07-27T09:38:23.930Z,26.09
2022-07-27T09:49:02.092Z,26.88
2022-07-27T09:54:08.574Z,27.53
2022-07-27T09:59:27.986Z,27.81
2022-07-27T10:04:32.906Z,28.16
2022-07-27T10:09:34.549Z,28.10
2022-07-27T10:14:35.894Z,28.26
2022-07-27T10:19:51.291Z,28.57
2022-07-27T10:24:59.417Z,28.49
2022-07-27T10:30:05.006Z,29.03
2022-07-27T10:35:33.096Z,29.62
2022-07-27T10:40:45.158Z,30.07
2022-07-27T10:46:02.549Z,30.54
2022-07-27T10:51:06.641Z,31.16
2022-07-27T10:56:09.997Z,31.44
2022-07-27T11:01:12.920Z,31.22
2022-07-27T11:11:43.530Z,31.32
2022-07-27T11:16:55.255Z,31.20
2022-07-27T11:21:58.023Z,30.79
2022-07-27T11:26:59.632Z,30.10
2022-07-27T11:32:02.401Z,30.13
2022-07-27T11:37:13.635Z,30.84
2022-07-27T11:42:20.819Z,31.21
2022-07-27T11:47:36.740Z,31.12
2022-07-27T11:52:38.616Z,31.27
2022-07-27T11:57:39.979Z,31.72
2022-07-27T12:02:51.391Z,31.78
2022-07-27T12:07:54.185Z,31.68
2022-07-27T12:12:56.014Z,30.98
2022-07-27T12:17:57.494Z,30.29
2022-07-27T12:23:06.054Z,30.18
2022-07-27T12:28:12.963Z,29.73
2022-07-27T12:33:37.566Z,29.37
2022-07-27T12:38:41.400Z,28.79
2022-07-27T12:44:21.585Z,28.66
2022-07-27T12:49:24.725Z,29.09
2022-07-27T12:54:25.946Z,29.38
2022-07-27T12:59:27.402Z,29.50
2022-07-27T13:04:28.895Z,29.68
2022-07-27T13:10:02.143Z,29.81
2022-07-27T13:14:51.947Z,30.03
2022-07-27T13:19:54.508Z,30.33
2022-07-27T13:24:56.244Z,30.35
2022-07-27T13:29:59.411Z,30.58
2022-07-27T13:35:00.875Z,31.12
2022-07-27T13:40:02.370Z,31.82
2022-07-27T13:45:10.794Z,31.99
2022-07-27T13:50:18.281Z,32.32
2022-07-27T13:55:24.763Z,32.80
2022-07-27T14:00:29.134Z,33.03
2022-07-27T14:05:32.794Z,33.11
2022-07-27T14:10:41.098Z,33.53
2022-07-27T14:15:53.028Z,33.37
2022-07-27T14:20:58.273Z,32.91
2022-07-27T14:26:00.939Z,32.94
2022-07-27T14:31:05.548Z,32.77
2022-07-27T14:36:29.050Z,31.94
2022-07-27T14:41:44.487Z,31.43
2022-07-27T14:46:46.715Z,31.16
2022-07-27T14:51:48.437Z,31.03
2022-07-27T14:56:49.741Z,31.38
2022-07-27T15:01:58.079Z,31.56
2022-07-27T15:07:03.248Z,31.21
2022-07-27T15:12:05.078Z,30.54
2022-07-27T15:17:09.641Z,30.05
2022-07-27T15:22:11.063Z,30.07
2022-07-27T15:27:13.494Z,30.37
2022-07-27T15:32:15.353Z,30.88
2022-07-27T15:37:18.271Z,31.30
2022-07-27T15:42:21.082Z,31.68
2022-07-27T15:47:22.406Z,31.43
2022-07-27T15:52:23.911Z,30.73
2022-07-27T15:57:25.186Z,30.13
2022-07-27T16:02:28.364Z,29.30
2022-07-27T16:07:40.766Z,28.52
2022-07-27T16:12:54.228Z,28.28
2022-07-27T16:17:56.345Z,28.70
2022-07-27T16:22:58.212Z,28.86
2022-07-27T16:28:20.041Z,28.49
2022-07-27T16:33:25.200Z,27.94
2022-07-27T16:38:27.786Z,27.38
2022-07-27T16:43:38.524Z,26.71
2022-07-27T16:48:42.361Z,25.88
2022-07-27T16:53:47.481Z,25.14
2022-07-27T16:58:49.539Z,24.61
2022-07-27T17:03:50.915Z,24.29
2022-07-27T17:09:05.054Z,24.12
2022-07-27T17:14:13.807Z,23.98
2022-07-27T17:19:16.474Z,23.86
2022-07-27T17:24:17.893Z,23.67
2022-07-27T17:29:19.487Z,23.27
2022-07-27T17:34:21.344Z,23.04
2022-07-27T17:39:22.989Z,22.79
2022-07-27T17:44:24.258Z,22.56
2022-07-27T17:49:25.632Z,22.41
2022-07-27T17:54:27.078Z,22.27
2022-07-27T17:59:37.486Z,22.16
2022-07-27T18:04:39.987Z,22.01
2022-07-27T18:09:42.143Z,21.87
2022-07-27T18:15:03.759Z,21.72
2022-07-27T18:20:09.893Z,21.65
2022-07-27T18:25:11.778Z,21.65
2022-07-27T18:30:13.248Z,21.59
2022-07-27T18:35:15.673Z,21.55
2022-07-27T18:40:17.554Z,21.45
2022-07-27T18:45:18.919Z,21.29
2022-07-27T18:50:20.894Z,21.10
2022-07-27T18:55:24.547Z,20.98
2022-07-27T19:00:27.021Z,20.86
2022-07-27T19:05:32.275Z,20.77
2022-07-27T19:10:43.658Z,20.71
2022-07-27T19:15:45.441Z,20.64
2022-07-27T19:20:46.904Z,20.55
2022-07-27T19:25:48.476Z,20.45
2022-07-27T19:30:51.497Z,20.34
2022-07-27T19:36:14.146Z,20.21
2022-07-27T19:41:28.965Z,20.07
2022-07-27T19:46:30.783Z,19.94
2022-07-27T19:51:32.880Z,19.87
2022-07-27T19:56:37.350Z,19.75
2022-07-27T20:01:38.930Z,19.61
2022-07-27T20:06:40.682Z,19.44
2022-07-27T20:11:42.443Z,19.34
2022-07-27T20:16:44.064Z,19.27
2022-07-27T20:21:45.687Z,19.24
2022-07-27T20:26:49.028Z,19.22
2022-07-27T20:31:54.561Z,19.18
2022-07-27T20:36:57.674Z,19.10
2022-07-27T20:42:19.098Z,19.00
2022-07-27T20:47:34.814Z,18.91
2022-07-27T20:52:37.903Z,18.81
2022-07-27T20:57:39.717Z,18.68
2022-07-27T21:02:41.073Z,18.54
2022-07-27T21:07:52.071Z,18.42
2022-07-27T21:13:07.423Z,18.30
2022-07-27T21:18:08.872Z,18.17
2022-07-27T21:23:36.028Z,18.03
2022-07-27T21:28:49.471Z,17.90
2022-07-27T21:34:01.752Z,17.82
2022-07-27T21:39:04.107Z,17.76
2022-07-27T21:44:05.442Z,17.76
2022-07-27T21:49:16.122Z,17.80
2022-07-27T21:54:18.128Z,17.86
2022-07-27T21:59:19.455Z,17.93
2022-07-27T22:04:20.989Z,17.98
2022-07-27T22:09:22.638Z,18.02
2022-07-27T22:14:24.993Z,18.02
2022-07-27T22:19:26.267Z,18.01
2022-07-27T22:24:27.660Z,17.99
2022-07-27T22:29:29.069Z,17.94
2022-07-27T22:34:30.422Z,17.88
2022-07-27T22:39:31.891Z,17.82
2022-07-27T22:44:36.954Z,17.78
2022-07-27T22:49:38.274Z,17.76
2022-07-27T22:54:53.544Z,17.67
2022-07-27T22:59:54.850Z,17.54
2022-07-27T23:04:59.182Z,17.46
2022-07-27T23:10:01.428Z,17.33
2022-07-27T23:15:02.955Z,17.27
2022-07-27T23:20:05.468Z,17.23
2022-07-27T23:25:07.972Z,17.18
2022-07-27T23:30:10.313Z,17.09
2022-07-27T23:35:11.960Z,17.00
2022-07-27T23:40:13.286Z,16.91
2022-07-27T23:45:14.749Z,16.85
2022-07-27T23:50:16.588Z,16.78
2022-07-27T23:55:17.997Z,16.74
